createdAt,value
2017-10-18T00:00:03.613Z,95.7
2017-10-18T00:05:03.235Z,95.6
2017-10-18T00:10:02.639Z,95.7
2017-10-18T00:15:05.359Z,95.5
2017-10-18T00:20:10.230Z,95.6
2017-10-18T00:25:05.889Z,95.6
2017-10-18T00:30:05.685Z,95.6
2017-10-18T00:35:02.891Z,95.6
2017-10-18T00:40:03.265Z,95.6
2017-10-18T00:45:03.403Z,95.5
2017-10-18T00:50:08.296Z,95.5
2017-10-18T00:55:15.565Z,95.4
2017-10-18T01:00:20.431Z,95.2
2017-10-18T01:05:18.610Z,95.3
2017-10-18T01:10:02.768Z,95.3
2017-10-18T01:15:05.520Z,95.5
2017-10-18T01:20:07.880Z,95.5
2017-10-18T01:25:03.543Z,95.5
2017-10-18T01:30:10.895Z,95.6
2017-10-18T01:35:03.026Z,95.6
2017-10-18T01:40:05.856Z,95.6
2017-10-18T01:45:07.584Z,95.7
2017-10-18T01:50:03.390Z,95.7
2017-10-18T01:55:03.128Z,95.7
2017-10-18T02:00:02.994Z,95.7
2017-10-18T02:05:02.651Z,95.9
2017-10-18T02:10:02.942Z,95.8
2017-10-18T02:15:13.257Z,95.6
2017-10-18T02:20:05.455Z,95.7
2017-10-18T02:25:12.769Z,95.7
2017-10-18T02:30:28.766Z,95.8
2017-10-18T02:35:05.690Z,96.1
2017-10-18T02:40:21.228Z,95.8
2017-10-18T02:50:06.039Z,95.7
2017-10-18T02:55:08.257Z,95.9
2017-10-18T03:00:02.921Z,95.9
2017-10-18T03:05:05.208Z,96.1
2017-10-18T03:10:05.576Z,96.3
2017-10-18T03:15:23.405Z,96.4
2017-10-18T03:20:05.628Z,96.5
2017-10-18T03:25:02.655Z,96.5
2017-10-18T03:30:10.980Z,96.6
2017-10-18T03:35:05.585Z,96.7
2017-10-18T03:40:05.953Z,96.9
2017-10-18T03:45:03.540Z,96.9
2017-10-18T03:50:05.895Z,96.6
2017-10-18T03:55:02.910Z,96.6
2017-10-18T04:00:02.791Z,96.5
2017-10-18T04:05:03.362Z,96.6
2017-10-18T04:10:17.879Z,96.4
2017-10-18T04:15:02.779Z,96.4
2017-10-18T04:20:05.139Z,96.3
2017-10-18T04:25:10.806Z,96.3
2017-10-18T04:30:10.570Z,96.3
2017-10-18T04:35:05.154Z,96.5
2017-10-18T04:40:02.863Z,96.5
2017-10-18T04:45:02.993Z,96.4
2017-10-18T04:50:02.721Z,96.3
2017-10-18T04:55:08.375Z,96.4
2017-10-18T05:00:08.154Z,96.4
2017-10-18T05:05:02.658Z,96.4
2017-10-18T05:10:02.936Z,96.6
2017-10-18T05:15:25.685Z,96.5
2017-10-18T05:20:28.093Z,96.7
2017-10-18T05:25:03.316Z,96.7
2017-10-18T05:30:05.649Z,96.5
2017-10-18T05:35:05.108Z,96.6
2017-10-18T05:40:07.870Z,96.6
2017-10-18T05:45:02.864Z,96.6
2017-10-18T05:50:02.666Z,96.8
2017-10-18T05:55:08.240Z,96.7
2017-10-18T06:00:05.542Z,96.9
2017-10-18T06:05:02.528Z,96.9
2017-10-18T06:10:02.806Z,96.8
2017-10-18T06:15:10.511Z,97.1
2017-10-18T06:20:07.765Z,97.2
2017-10-18T06:25:08.349Z,97.5
2017-10-18T06:30:03.037Z,97.5
2017-10-18T06:35:02.640Z,97.5
2017-10-18T06:40:05.530Z,97.5
2017-10-18T06:45:03.055Z,97.5
2017-10-18T06:50:05.376Z,98.2
2017-10-18T06:55:03.479Z,98.2
2017-10-18T07:00:08.356Z,98.5
2017-10-18T07:05:02.986Z,98.5
2017-10-18T07:10:05.840Z,98.3
2017-10-18T07:15:03.394Z,98.3
2017-10-18T07:20:03.231Z,98.4
2017-10-18T07:25:05.434Z,98.8
2017-10-18T07:30:17.847Z,99
2017-10-18T07:35:03.391Z,99
2017-10-18T07:40:25.442Z,99.2
2017-10-18T07:45:07.971Z,99.2
2017-10-18T07:50:02.753Z,99.2
2017-10-18T07:55:06.009Z,99.4
2017-10-18T08:00:05.805Z,99.6
2017-10-18T08:05:05.548Z,99.6
2017-10-18T08:10:11.022Z,99.7
2017-10-18T08:15:02.541Z,99.7
2017-10-18T08:20:11.118Z,99.6
2017-10-18T08:25:08.238Z,99.7
2017-10-18T08:30:03.052Z,99.7
2017-10-18T08:35:05.353Z,99.4
2017-10-18T08:40:08.196Z,99.3
2017-10-18T08:45:05.953Z,99.1
2017-10-18T08:50:10.918Z,99.1
2017-10-18T08:55:03.113Z,99
2017-10-18T09:00:03.014Z,99.2
2017-10-18T09:05:05.329Z,98.8
2017-10-18T09:10:05.762Z,98.8
2017-10-18T09:15:17.726Z,98.5
2017-10-18T09:20:03.511Z,98.5
2017-10-18T09:25:03.370Z,98.5
2017-10-18T09:30:03.280Z,98.1
2017-10-18T09:35:05.710Z,97.9
2017-10-18T09:40:17.926Z,97.6
2017-10-18T09:45:33.468Z,97.5
2017-10-18T09:50:10.760Z,97.4
2017-10-18T09:55:08.115Z,97.3
2017-10-18T10:00:08.085Z,97.3
2017-10-18T10:05:02.955Z,97.2
2017-10-18T10:10:11.086Z,97.3
2017-10-18T10:15:05.390Z,97.2
2017-10-18T10:20:05.446Z,96.6
2017-10-18T10:25:07.902Z,96.5
2017-10-18T10:30:02.896Z,96.5
2017-10-18T10:35:38.262Z,95.8
2017-10-18T10:40:03.360Z,95.8
2017-10-18T10:45:05.351Z,94.8
2017-10-18T10:50:02.884Z,94.8
2017-10-18T10:55:02.925Z,94.3
2017-10-18T11:00:08.062Z,92.7
2017-10-18T11:05:08.017Z,92.7
2017-10-18T11:10:06.026Z,92.3
2017-10-18T11:15:08.133Z,91.7
2017-10-18T11:20:03.116Z,91.7
2017-10-18T11:25:33.570Z,90.8
2017-10-18T11:30:10.947Z,90.8
2017-10-18T11:35:03.514Z,90.8
2017-10-18T11:40:05.689Z,90.4
2017-10-18T11:45:02.728Z,90.5
2017-10-18T11:50:02.865Z,90.3
2017-10-18T11:55:03.013Z,90
2017-10-18T12:00:05.703Z,87.6
2017-10-18T12:05:06.149Z,86.2
2017-10-18T12:10:05.839Z,85.8
2017-10-18T12:15:02.721Z,85.8
2017-10-18T12:20:05.488Z,81.7
2017-10-18T12:25:05.615Z,79.5
2017-10-18T12:30:10.964Z,79.7
2017-10-18T12:35:30.409Z,78.5
2017-10-18T12:40:03.350Z,78.5
2017-10-18T12:45:05.607Z,77.8
2017-10-18T12:50:03.350Z,77.8
2017-10-18T12:55:15.301Z,77.4
2017-10-18T13:00:07.905Z,77.6
2017-10-18T13:05:10.728Z,75.5
2017-10-18T13:10:17.986Z,73.8
2017-10-18T13:15:05.260Z,72.6
2017-10-18T13:20:02.975Z,72.5
2017-10-18T13:25:03.325Z,71.1
2017-10-18T13:30:05.184Z,70.7
2017-10-18T13:35:23.298Z,71
2017-10-18T13:40:02.812Z,71
2017-10-18T13:45:05.246Z,70.8
2017-10-18T13:50:02.961Z,70.7
2017-10-18T13:55:08.462Z,69.1
2017-10-18T14:00:05.222Z,67.7
2017-10-18T14:05:08.140Z,67.2
2017-10-18T14:10:18.045Z,66.5
2017-10-18T14:15:07.852Z,66.8
2017-10-18T14:20:05.648Z,66.1
2017-10-18T14:25:02.572Z,66.2
2017-10-18T14:30:05.489Z,67.8
2017-10-18T14:35:21.113Z,67.8
2017-10-18T14:40:03.230Z,67.9
2017-10-18T14:45:15.831Z,69.8
2017-10-18T14:50:03.479Z,69.7
2017-10-18T14:55:10.470Z,70.4
2017-10-18T15:00:05.738Z,71.3
2017-10-18T15:05:02.606Z,71.3
2017-10-18T15:10:05.895Z,73.5
2017-10-18T15:15:05.751Z,75.7
2017-10-18T15:20:23.690Z,76.3
2017-10-18T15:25:02.758Z,76.3
2017-10-18T15:30:05.511Z,78.5
2017-10-18T15:35:03.218Z,78.4
2017-10-18T15:40:02.929Z,79.3
2017-10-18T15:45:07.641Z,83.1
2017-10-18T15:50:07.798Z,83.5
2017-10-18T15:55:07.934Z,84.1
2017-10-18T16:00:05.579Z,84.6
2017-10-18T16:05:05.673Z,84.8
2017-10-18T16:10:07.890Z,85.3
2017-10-18T16:15:05.999Z,87
2017-10-18T16:20:17.734Z,87.7
2017-10-18T16:25:02.703Z,87.7
2017-10-18T16:30:15.492Z,89.7
2017-10-18T16:35:02.954Z,89.8
2017-10-18T16:40:08.590Z,90.2
2017-10-18T16:45:03.178Z,90.2
2017-10-18T16:50:05.736Z,90.8
2017-10-18T16:55:03.321Z,90.8
2017-10-18T17:00:08.498Z,91.4
2017-10-18T17:05:18.584Z,91.5
2017-10-18T17:10:05.505Z,92.1
2017-10-18T17:15:11.122Z,92.3
2017-10-18T17:20:07.645Z,92.6
2017-10-18T17:25:02.536Z,92.6
2017-10-18T17:30:20.290Z,93.1
2017-10-18T17:35:07.706Z,93.4
2017-10-18T17:40:08.226Z,93.7
2017-10-18T17:45:16.185Z,93.8
2017-10-18T17:50:03.658Z,93.8
2017-10-18T17:55:06.063Z,93.8
2017-10-18T18:00:08.597Z,93.9
2017-10-18T18:05:08.497Z,94.1
2017-10-18T18:10:05.394Z,94.3
2017-10-18T18:15:08.421Z,94.4
2017-10-18T18:20:05.858Z,94.4
2017-10-18T18:25:05.782Z,94.4
2017-10-18T18:30:03.137Z,94.4
2017-10-18T18:35:30.905Z,94.7
2017-10-18T18:40:08.595Z,94.5
2017-10-18T18:45:30.698Z,94.6
2017-10-18T18:50:02.790Z,94.6
2017-10-18T18:55:15.284Z,95
2017-10-18T19:00:03.550Z,94.9
2017-10-18T19:05:03.405Z,95
2017-10-18T19:10:07.854Z,95
2017-10-18T19:15:03.153Z,95
2017-10-18T19:20:05.590Z,95.2
2017-10-18T19:25:02.895Z,95.2
2017-10-18T19:35:02.665Z,95.1
2017-10-18T19:40:18.176Z,95.5
2017-10-18T19:45:05.870Z,95.2
2017-10-18T19:50:10.853Z,95.3
2017-10-18T19:55:03.101Z,95.3
2017-10-18T20:00:08.057Z,95.4
2017-10-18T20:05:07.869Z,95.2
2017-10-18T20:10:13.352Z,95.8
2017-10-18T20:15:08.501Z,95.8
2017-10-18T20:20:10.965Z,95.6
2017-10-18T20:25:05.699Z,95.4
2017-10-18T20:30:05.593Z,95.8
2017-10-18T20:35:02.860Z,95.8
2017-10-18T20:40:05.799Z,96.1
2017-10-18T20:45:08.632Z,96.1
2017-10-18T20:50:21.160Z,96.1
2017-10-18T20:55:03.189Z,96.1
2017-10-18T21:00:03.112Z,95.7
2017-10-18T21:05:05.396Z,95.7
2017-10-18T21:10:05.833Z,95.6
2017-10-18T21:15:16.140Z,95.7
2017-10-18T21:20:03.280Z,95.7
2017-10-18T21:25:05.564Z,95.6
2017-10-18T21:30:02.928Z,95.6
2017-10-18T21:35:05.157Z,95.6
2017-10-18T21:40:10.513Z,95.7
2017-10-18T21:45:03.198Z,95.7
2017-10-18T21:50:20.751Z,94.2
2017-10-18T21:55:02.708Z,95.8
2017-10-18T22:00:06.099Z,96.1
2017-10-18T22:05:13.342Z,96.3
2017-10-18T22:10:03.537Z,96.2
2017-10-18T22:15:05.216Z,96
2017-10-18T22:20:03.611Z,96
2017-10-18T22:25:05.802Z,96
2017-10-18T22:30:05.625Z,95.9
2017-10-18T22:35:05.269Z,96
2017-10-18T22:40:05.576Z,95.9
2017-10-18T22:45:10.855Z,95.9
2017-10-18T22:50:10.647Z,95.8
2017-10-18T22:55:05.272Z,95.9
2017-10-18T23:00:11.098Z,95.9
2017-10-18T23:05:03.172Z,95.9
2017-10-18T23:10:18.807Z,95.9
2017-10-18T23:15:07.790Z,96
2017-10-18T23:20:03.535Z,96
2017-10-18T23:25:25.931Z,96.5
2017-10-18T23:30:02.927Z,96.4
2017-10-18T23:35:02.567Z,96.5
2017-10-18T23:40:05.440Z,96.3
2017-10-18T23:45:03.073Z,96.3
2017-10-18T23:50:05.418Z,96.2
2017-10-18T23:55:07.620Z,96.1
